Time;durP1;ratioP1;P1;durP2;ratioP2;P2;SDS_P1;SDS_P2;PMS_P1;PMS_P2;Temp;Humidity;BMP_temperature;BMP_pressure;BME280_temperature;BME280_humidity;BME280_pressure;Samples;Min_cycle;Max_cycle;Signal;HPM_P1;HPM_P2
2022/01/14 00:00:05;;;;;;;17.27;5.93;;;;;;;6.13;100.00;103165.22;10205098;28;20545;-66
2022/01/14 00:05:02;;;;;;;17.98;4.20;;;;;;;6.02;100.00;103158.66;10184380;28;20050;-66
2022/01/14 00:09:59;;;;;;;24.83;6.13;;;;;;;6.06;100.00;103149.00;10232182;28;20081;-66
2022/01/14 00:15:11;;;;;;;17.08;5.30;;;;;;;6.10;100.00;103152.09;10176541;28;20069;-66
2022/01/14 00:20:08;;;;;;;17.65;5.72;;;;;;;6.09;100.00;103151.25;10231414;28;20050;-66
2022/01/14 00:35:18;;;;;;;17.95;5.13;;;;;;;5.92;100.00;103163.78;10188657;28;20056;-65
2022/01/14 00:40:14;;;;;;;17.15;3.75;;;;;;;5.82;100.00;103171.59;10228147;28;20038;-65
2022/01/14 00:45:11;;;;;;;20.50;5.22;;;;;;;5.84;100.00;103148.59;10196164;28;20077;-65
2022/01/14 00:50:11;;;;;;;29.27;8.23;;;;;;;5.83;100.00;103154.28;10219210;28;20046;-67
2022/01/14 00:55:12;;;;;;;18.95;5.43;;;;;;;5.79;100.00;103147.63;10198440;28;20110;-67
2022/01/14 01:00:09;;;;;;;20.95;5.72;;;;;;;5.74;100.00;103148.31;10233965;28;20380;-67
2022/01/14 01:05:06;;;;;;;22.50;6.25;;;;;;;5.80;100.00;103138.41;10182064;28;20111;-67
2022/01/14 01:10:03;;;;;;;12.40;4.25;;;;;;;5.68;100.00;103130.19;10187547;28;20478;-66
2022/01/14 01:15:08;;;;;;;26.88;6.72;;;;;;;5.70;100.00;103134.34;10172970;28;20463;-65
2022/01/14 01:20:13;;;;;;;14.20;5.32;;;;;;;5.66;100.00;103127.72;10204536;28;20476;-66
2022/01/14 01:25:11;;;;;;;21.80;5.97;;;;;;;5.72;100.00;103136.00;10209579;28;20049;-66
2022/01/14 01:30:37;;;;;;;19.80;5.45;;;;;;;5.64;100.00;103140.69;10202445;28;20096;-66
2022/01/14 01:35:33;;;;;;;29.02;5.97;;;;;;;5.76;100.00;103137.22;10179497;28;20053;-67
2022/01/14 01:40:30;;;;;;;19.42;5.40;;;;;;;5.74;100.00;103125.75;10222533;28;20120;-66
2022/01/14 01:45:27;;;;;;;12.57;4.57;;;;;;;5.75;100.00;103136.38;10185458;28;20143;-66
2022/01/14 01:50:27;;;;;;;14.25;3.90;;;;;;;5.66;100.00;103135.88;10211336;28;20046;-66
2022/01/14 01:55:24;;;;;;;14.40;4.05;;;;;;;5.69;100.00;103119.13;10195589;28;20474;-66
2022/01/14 02:00:24;;;;;;;16.92;6.63;;;;;;;5.68;100.00;103120.16;10230390;28;20584;-66
2022/01/14 02:05:22;;;;;;;19.88;4.70;;;;;;;5.70;100.00;103131.63;10198507;28;20114;-66
2022/01/14 02:10:19;;;;;;;20.80;3.80;;;;;;;5.74;100.00;103120.34;10194703;28;20073;-66
2022/01/14 02:25:48;;;;;;;16.88;4.10;;;;;;;5.79;100.00;103121.31;10205561;28;20049;-65
2022/01/14 02:30:48;;;;;;;16.27;4.10;;;;;;;5.80;100.00;103100.41;10186394;28;20070;-65
2022/01/14 02:35:47;;;;;;;19.50;4.40;;;;;;;5.88;100.00;103091.97;10189548;28;20505;-66
2022/01/14 02:40:45;;;;;;;10.18;3.30;;;;;;;5.85;100.00;103079.69;10185971;28;20088;-67
2022/01/14 02:45:52;;;;;;;19.58;4.03;;;;;;;5.83;100.00;103075.53;10181160;28;20072;-66
2022/01/14 02:51:08;;;;;;;16.08;3.92;;;;;;;5.84;100.00;103060.91;10182919;28;20080;-66
2022/01/14 02:56:08;;;;;;;12.57;4.30;;;;;;;5.87;100.00;103041.41;10178307;28;20560;-65
2022/01/14 03:01:12;;;;;;;20.77;4.88;;;;;;;5.88;100.00;103043.91;10189366;28;20093;-65
2022/01/14 03:06:08;;;;;;;23.75;4.03;;;;;;;5.90;100.00;103030.13;10192272;28;20517;-66
2022/01/14 03:11:11;;;;;;;18.95;4.10;;;;;;;5.89;100.00;103023.88;10193802;28;20137;-66
2022/01/14 03:16:07;;;;;;;15.05;4.40;;;;;;;5.90;100.00;103019.25;10209162;28;20061;-65
2022/01/14 03:21:11;;;;;;;16.42;3.70;;;;;;;5.95;100.00;103022.13;10180030;28;20053;-67
2022/01/14 03:26:08;;;;;;;14.20;3.40;;;;;;;5.95;100.00;103019.41;10180712;28;20070;-66
2022/01/14 03:31:04;;;;;;;16.73;5.10;;;;;;;5.94;100.00;103020.50;10198522;28;20054;-65
2022/01/14 03:36:03;;;;;;;22.98;4.60;;;;;;;5.91;100.00;102999.19;10200734;28;20069;-66
2022/01/14 03:41:01;;;;;;;21.88;4.65;;;;;;;5.97;100.00;102982.00;10202655;28;20041;-66
2022/01/14 03:45:58;;;;;;;15.07;3.80;;;;;;;5.94;100.00;102982.47;10204004;28;20084;-66
2022/01/14 03:50:54;;;;;;;15.55;4.05;;;;;;;6.00;100.00;102973.38;10212557;28;20619;-66
2022/01/14 03:55:51;;;;;;;16.25;4.68;;;;;;;5.94;100.00;102970.72;10214823;28;20058;-65
2022/01/14 04:01:11;;;;;;;18.73;4.43;;;;;;;5.96;100.00;102952.34;10187641;28;20053;-65
2022/01/14 04:06:10;;;;;;;20.48;4.70;;;;;;;5.96;100.00;102964.03;10214810;28;20045;-64
2022/01/14 04:11:08;;;;;;;13.98;4.78;;;;;;;5.98;100.00;102945.63;10214801;28;20046;-65
2022/01/14 04:16:06;;;;;;;21.48;4.97;;;;;;;5.99;100.00;102962.78;10213813;28;20073;-65
2022/01/14 04:21:03;;;;;;;19.88;4.32;;;;;;;6.02;100.00;102957.69;10207375;28;20045;-65
2022/01/14 04:25:59;;;;;;;21.02;4.05;;;;;;;6.05;100.00;102964.53;10214527;28;20521;-66
2022/01/14 04:30:56;;;;;;;20.48;4.13;;;;;;;6.01;100.00;102977.78;10185584;28;20046;-65
2022/01/14 04:35:57;;;;;;;18.30;4.10;;;;;;;6.04;100.00;102961.00;10196450;28;20128;-65
2022/01/14 04:40:54;;;;;;;17.25;4.45;;;;;;;6.04;100.00;102939.28;10179300;28;20104;-66
2022/01/14 04:46:12;;;;;;;18.65;4.30;;;;;;;6.04;100.00;102950.16;10204835;28;20053;-66
2022/01/14 04:51:10;;;;;;;24.90;5.43;;;;;;;6.01;100.00;102949.78;10177445;28;20103;-65
2022/01/14 04:56:07;;;;;;;19.35;3.72;;;;;;;5.95;100.00;102940.69;10200055;28;20045;-65
2022/01/14 05:01:03;;;;;;;16.98;4.47;;;;;;;5.94;100.00;102949.91;10220171;28;20076;-65
2022/01/14 05:06:01;;;;;;;18.60;4.22;;;;;;;5.92;100.00;102957.41;10195687;28;20136;-65
2022/01/14 05:15:55;;;;;;;16.05;4.32;;;;;;;5.89;100.00;102947.84;10176137;28;20726;-65
2022/01/14 05:20:55;;;;;;;12.88;3.42;;;;;;;5.97;100.00;102943.16;10181103;28;20051;-65
2022/01/14 05:25:51;;;;;;;16.33;3.65;;;;;;;5.97;100.00;102938.56;10169727;28;20687;-66
2022/01/14 05:30:48;;;;;;;12.90;4.15;;;;;;;5.99;100.00;102939.16;10179933;28;20049;-64
2022/01/14 05:35:45;;;;;;;17.80;3.47;;;;;;;5.99;100.00;102941.88;10187769;28;20087;-67
2022/01/14 05:40:42;;;;;;;15.50;3.25;;;;;;;5.95;100.00;102940.69;10209685;28;20046;-67
2022/01/14 05:45:38;;;;;;;24.33;3.45;;;;;;;5.97;100.00;102929.59;10198493;28;20536;-67
2022/01/14 05:50:35;;;;;;;17.33;3.65;;;;;;;5.98;100.00;102951.06;10182243;28;20046;-68
2022/01/14 05:55:31;;;;;;;14.00;3.47;;;;;;;5.93;100.00;102964.47;10191793;28;20092;-68
2022/01/14 06:00:30;;;;;;;25.35;4.07;;;;;;;6.04;100.00;102971.88;10185924;28;20207;-66
2022/01/14 06:05:27;;;;;;;17.70;3.83;;;;;;;5.99;100.00;102966.31;10183629;28;20437;-66
2022/01/14 06:10:26;;;;;;;20.50;4.22;;;;;;;5.87;100.00;102965.41;10180269;28;20498;-66
2022/01/14 06:15:23;;;;;;;20.05;3.22;;;;;;;5.83;100.00;102969.66;10187713;28;20096;-66
2022/01/14 06:20:19;;;;;;;24.45;4.03;;;;;;;5.70;100.00;102971.47;10186355;28;20100;-66
2022/01/14 06:25:16;;;;;;;16.67;3.20;;;;;;;5.73;100.00;102985.66;10165851;28;20077;-67
2022/01/14 06:30:13;;;;;;;20.33;3.88;;;;;;;5.66;100.00;102975.72;10170527;28;20046;-68
2022/01/14 06:35:12;;;;;;;18.30;4.00;;;;;;;5.66;100.00;102961.31;10184197;28;20406;-68
2022/01/14 06:40:09;;;;;;;16.40;3.60;;;;;;;5.65;100.00;102963.19;10182520;28;20132;-68
2022/01/14 06:45:13;;;;;;;28.38;5.10;;;;;;;5.66;100.00;102962.16;10185619;28;20054;-67
2022/01/14 06:50:09;;;;;;;17.90;3.30;;;;;;;5.76;100.00;102964.31;10224744;28;20543;-68
2022/01/14 06:55:07;;;;;;;22.50;3.70;;;;;;;5.79;100.00;102960.31;10204984;28;20135;-68
2022/01/14 07:00:10;;;;;;;26.35;3.72;;;;;;;5.72;100.00;102973.97;10172190;28;20085;-68
2022/01/14 07:05:08;;;;;;;22.55;4.22;;;;;;;5.78;100.00;102972.22;10160213;28;20077;-67
2022/01/14 07:10:09;;;;;;;23.67;4.82;;;;;;;5.79;100.00;102979.31;10178672;28;20482;-65
2022/01/14 07:15:08;;;;;;;13.48;3.17;;;;;;;5.79;100.00;102995.59;10181597;28;20132;-68
2022/01/14 07:20:10;;;;;;;18.70;4.10;;;;;;;5.81;100.00;102993.50;10206261;28;20149;-68
2022/01/14 07:25:08;;;;;;;18.03;3.73;;;;;;;5.79;100.00;103006.47;10186872;28;20061;-67
2022/01/14 07:30:07;;;;;;;24.33;4.50;;;;;;;5.83;100.00;103007.66;10200993;28;20073;-67
2022/01/14 07:35:05;;;;;;;23.23;3.55;;;;;;;5.81;100.00;103010.59;10184383;28;20077;-67
2022/01/14 07:40:03;;;;;;;20.38;4.00;;;;;;;5.82;100.00;103011.41;10186517;28;20078;-69
2022/01/14 07:44:59;;;;;;;20.48;3.60;;;;;;;5.79;100.00;103033.59;10212415;28;20057;-67
2022/01/14 07:49:56;;;;;;;18.95;4.50;;;;;;;5.72;100.00;103011.97;10192871;28;20100;-68
2022/01/14 07:54:52;;;;;;;25.55;4.55;;;;;;;5.83;100.00;103007.66;10190117;28;20046;-67
2022/01/14 07:59:49;;;;;;;24.63;4.00;;;;;;;5.88;100.00;103015.94;10206170;28;20116;-68
2022/01/14 08:04:47;;;;;;;23.90;4.25;;;;;;;5.86;100.00;103018.06;10190912;28;20045;-67
2022/01/14 08:09:44;;;;;;;27.92;4.63;;;;;;;5.83;100.00;103013.09;10207701;28;20038;-68
2022/01/14 08:14:41;;;;;;;29.67;4.63;;;;;;;5.78;100.00;103021.06;10195103;28;20084;-67
2022/01/14 08:19:38;;;;;;;29.92;4.97;;;;;;;5.88;100.00;103026.81;10209505;28;20121;-67
2022/01/14 08:24:36;;;;;;;36.42;4.50;;;;;;;5.89;100.00;103018.44;10182277;28;20505;-68
2022/01/14 08:29:33;;;;;;;25.50;5.72;;;;;;;5.88;100.00;103013.22;10214074;28;20076;-67
2022/01/14 08:34:29;;;;;;;27.83;5.70;;;;;;;5.95;100.00;103018.59;10189388;28;20052;-68
2022/01/14 08:39:26;;;;;;;28.42;4.35;;;;;;;5.89;100.00;103026.59;10220321;28;20132;-67
2022/01/14 08:44:22;;;;;;;23.52;3.60;;;;;;;5.85;100.00;103049.00;10198138;28;20810;-70
2022/01/14 08:49:20;;;;;;;23.38;4.50;;;;;;;5.80;100.00;103062.41;10217717;28;20113;-67
2022/01/14 08:54:17;;;;;;;29.83;5.25;;;;;;;5.78;100.00;103048.22;10165063;28;20077;-68
2022/01/14 08:59:17;;;;;;;26.60;4.68;;;;;;;5.83;100.00;103045.69;10201811;28;20473;-68
2022/01/14 09:04:15;;;;;;;29.92;5.82;;;;;;;5.83;100.00;103056.53;10198442;28;20050;-68
2022/01/14 09:09:11;;;;;;;26.13;5.13;;;;;;;5.87;100.00;103052.28;10215000;28;20089;-68
2022/01/14 09:14:08;;;;;;;31.35;5.40;;;;;;;5.80;100.00;103046.13;10196892;28;20058;-68
2022/01/14 09:19:05;;;;;;;24.70;5.00;;;;;;;5.83;100.00;103045.69;10193617;28;20069;-65
2022/01/14 09:24:04;;;;;;;31.63;5.85;;;;;;;5.67;100.00;103061.50;10185514;28;20129;-65
2022/01/14 09:29:02;;;;;;;25.45;7.20;;;;;;;5.79;100.00;103055.31;10195014;28;20045;-68
2022/01/14 09:33:59;;;;;;;21.42;5.72;;;;;;;5.85;100.00;103051.72;10180141;28;20050;-68
2022/01/14 09:38:57;;;;;;;33.17;6.28;;;;;;;5.82;100.00;103049.44;10180359;28;20065;-68
2022/01/14 09:43:54;;;;;;;24.88;7.07;;;;;;;5.87;100.00;103046.84;10182281;28;20050;-68
2022/01/14 09:48:51;;;;;;;31.77;6.43;;;;;;;5.87;100.00;103046.84;10201625;28;20054;-68
2022/01/14 09:53:48;;;;;;;22.67;6.18;;;;;;;5.83;100.00;103056.53;10222626;28;20070;-68
2022/01/14 09:58:49;;;;;;;24.83;6.80;;;;;;;5.87;100.00;103044.13;10209194;28;20074;-67
2022/01/14 10:03:48;;;;;;;26.73;6.10;;;;;;;5.87;100.00;103052.28;10194346;28;20050;-67
2022/01/14 10:08:45;;;;;;;24.25;5.97;;;;;;;5.81;100.00;103070.31;10220765;28;20061;-68
2022/01/14 10:13:43;;;;;;;26.42;6.50;;;;;;;5.86;100.00;103066.94;10171593;28;20050;-67
2022/01/14 10:18:40;;;;;;;16.60;4.60;;;;;;;5.89;100.00;103078.16;10213337;28;20103;-67
2022/01/14 10:23:54;;;;;;;23.25;5.55;;;;;;;5.93;100.00;103089.38;10187253;28;20077;-66
2022/01/14 10:29:03;;;;;;;11.35;4.40;;;;;;;5.87;100.00;103085.72;10184367;28;20112;-66
2022/01/14 10:34:09;;;;;;;26.15;4.85;;;;;;;5.88;100.00;103072.97;10177941;28;20046;-66
2022/01/14 10:39:23;;;;;;;20.08;4.15;;;;;;;5.90;100.00;103068.97;10182987;28;20137;-66
2022/01/14 10:44:30;;;;;;;19.20;5.88;;;;;;;5.88;100.00;103075.69;10169292;28;20042;-66
2022/01/14 10:49:33;;;;;;;14.95;4.88;;;;;;;5.96;100.00;103078.09;10158984;28;20057;-65
2022/01/14 10:54:39;;;;;;;21.15;5.28;;;;;;;5.99;100.00;103061.38;10209187;28;20505;-65
2022/01/14 10:59:35;;;;;;;12.15;3.65;;;;;;;6.01;100.00;103066.53;10214325;28;20096;-66
2022/01/14 11:04:33;;;;;;;16.67;3.63;;;;;;;6.11;100.00;103059.50;10189993;28;20080;-65
2022/01/14 11:09:32;;;;;;;17.50;4.18;;;;;;;6.05;100.00;103055.00;10191740;28;20096;-65
2022/01/14 11:14:29;;;;;;;12.27;3.50;;;;;;;6.14;100.00;103057.41;10170940;28;20559;-66
2022/01/14 11:19:26;;;;;;;10.75;3.30;;;;;;;6.07;100.00;103063.75;10168683;28;20046;-65
2022/01/14 11:24:25;;;;;;;10.77;3.58;;;;;;;6.07;100.00;103058.31;10172594;28;20050;-66
2022/01/14 11:29:22;;;;;;;11.82;3.00;;;;;;;6.13;100.00;103050.28;10173952;28;20042;-66
2022/01/14 11:34:51;;;;;;;9.85;4.03;;;;;;;6.09;100.00;103056.19;10171345;28;20080;-66
2022/01/14 11:39:57;;;;;;;13.93;4.80;;;;;;;6.17;100.00;103056.94;10157681;28;20054;-66
2022/01/14 11:44:57;;;;;;;12.88;3.00;;;;;;;6.19;100.00;103060.25;10203383;28;20050;-66
2022/01/14 11:49:56;;;;;;;8.02;2.80;;;;;;;6.21;100.00;103058.13;10166180;28;20058;-66
2022/01/14 11:54:52;;;;;;;11.02;3.15;;;;;;;6.26;100.00;103052.81;10161131;28;20137;-66
2022/01/14 11:59:48;;;;;;;8.02;3.00;;;;;;;6.31;100.00;103036.66;10162252;28;20111;-66
2022/01/14 12:05:04;;;;;;;8.82;2.83;;;;;;;6.31;100.00;103036.66;10175556;28;20616;-66
2022/01/14 12:10:09;;;;;;;10.05;3.55;;;;;;;6.37;100.00;103030.31;10185846;28;20776;-66
2022/01/14 12:15:10;;;;;;;7.93;2.00;;;;;;;6.36;100.00;103023.22;10167339;28;20054;-66
2022/01/14 12:20:11;;;;;;;8.48;2.50;;;;;;;6.48;100.00;103031.41;10223572;28;20103;-66
2022/01/14 12:25:09;;;;;;;5.82;2.83;;;;;;;6.49;100.00;103012.13;10203425;28;20114;-66
2022/01/14 12:30:11;;;;;;;5.88;2.58;;;;;;;6.41;100.00;103015.19;10205792;28;20085;-66
2022/01/14 12:35:10;;;;;;;7.45;2.58;;;;;;;6.39;100.00;103022.75;10184880;28;20089;-66
2022/01/14 12:40:11;;;;;;;9.10;3.13;;;;;;;6.54;100.00;103019.56;10206534;28;20469;-67
2022/01/14 12:45:10;;;;;;;8.45;3.60;;;;;;;6.49;100.00;103005.88;10176069;28;20415;-66
2022/01/14 12:50:10;;;;;;;8.60;3.17;;;;;;;6.43;100.00;103002.19;10179796;28;20687;-66
2022/01/14 12:55:08;;;;;;;7.43;3.17;;;;;;;6.51;100.00;102984.72;10174204;28;20080;-65
2022/01/14 13:00:07;;;;;;;7.93;3.42;;;;;;;6.56;100.00;102995.69;10177372;28;20467;-66
2022/01/14 13:05:15;;;;;;;10.38;3.80;;;;;;;6.59;100.00;102986.25;10180558;28;20077;-66
2022/01/14 13:10:16;;;;;;;10.45;3.30;;;;;;;6.62;100.00;102988.53;10176608;28;20050;-64
2022/01/14 13:15:19;;;;;;;6.70;2.83;;;;;;;6.62;100.00;102974.94;10176233;28;20112;-65
2022/01/14 13:20:20;;;;;;;;;;;;;;;6.66;100.00;102986.97;10216259;28;20444;-65
2022/01/14 13:25:20;;;;;;;8.68;3.38;;;;;;;6.69;100.00;102995.47;10179057;28;20447;-65
2022/01/14 13:30:23;;;;;;;7.65;3.25;;;;;;;6.70;100.00;102990.88;10215299;28;20053;-64
2022/01/14 13:35:21;;;;;;;7.20;2.85;;;;;;;6.71;100.00;102981.66;10197394;28;20049;-66
2022/01/14 13:40:20;;;;;;;7.20;2.58;;;;;;;6.76;100.00;102991.84;10212121;28;20077;-65
2022/01/14 13:45:20;;;;;;;8.18;3.80;;;;;;;6.78;100.00;102993.25;10177466;28;20715;-65
2022/01/14 13:50:18;;;;;;;8.88;3.33;;;;;;;6.80;100.00;102979.41;10191194;28;20052;-65
2022/01/14 13:55:37;;;;;;;11.85;2.67;;;;;;;6.86;100.00;102979.28;10193748;28;20053;-66
2022/01/14 14:00:34;;;;;;;14.20;4.03;;;;;;;6.92;100.00;102978.34;10195427;28;20058;-67
2022/01/14 14:05:41;;;;;;;11.75;3.20;;;;;;;6.94;100.00;102981.66;10178221;28;20054;-65
2022/01/14 14:11:49;;;;;;;6.25;2.28;;;;;;;6.88;100.00;102982.59;10188309;28;20099;-65
2022/01/14 14:16:04;;;;;;;13.10;3.25;;;;;;;6.97;100.00;102990.41;10202950;28;20456;-66
2022/01/14 14:21:15;;;;;;;12.02;3.42;;;;;;;7.02;100.00;102994.06;10208669;28;20149;-66
2022/01/14 14:26:29;;;;;;;10.15;3.28;;;;;;;7.00;100.00;102985.31;10176261;28;20493;-65
2022/01/14 14:31:27;;;;;;;10.27;3.33;;;;;;;6.98;100.00;102992.03;10205765;28;20068;-65
2022/01/14 14:36:27;;;;;;;10.43;4.47;;;;;;;7.04;100.00;102999.25;10194372;28;20172;-65
2022/01/14 14:41:23;;;;;;;7.47;2.72;;;;;;;6.96;100.00;103016.75;10203227;28;20061;-65
2022/01/14 14:46:21;;;;;;;11.50;3.13;;;;;;;6.93;100.00;103007.19;10171253;28;20128;-65
2022/01/14 14:51:18;;;;;;;12.35;3.38;;;;;;;6.98;100.00;103008.38;10184297;28;20050;-65
2022/01/14 14:56:15;;;;;;;12.85;3.03;;;;;;;6.91;100.00;103003.88;10176740;28;20178;-65
2022/01/14 15:01:11;;;;;;;13.32;3.60;;;;;;;6.89;100.00;103016.91;10180495;28;20126;-65
2022/01/14 15:06:12;;;;;;;11.45;3.20;;;;;;;6.86;100.00;103022.78;10166894;28;20129;-65
2022/01/14 15:11:08;;;;;;;18.42;4.22;;;;;;;6.87;100.00;103019.03;10167672;28;20042;-65
2022/01/14 15:21:28;;;;;;;12.23;3.17;;;;;;;6.70;100.00;103012.63;10196954;28;20041;-65
2022/01/14 15:26:25;;;;;;;17.27;4.65;;;;;;;6.73;100.00;103007.56;10203562;28;20470;-66
2022/01/14 15:31:21;;;;;;;20.63;4.30;;;;;;;6.65;100.00;103020.66;10175738;28;20113;-65
2022/01/14 15:36:19;;;;;;;20.35;4.03;;;;;;;6.56;100.00;103022.88;10177621;28;20445;-65
2022/01/14 15:41:17;;;;;;;17.08;3.80;;;;;;;6.58;100.00;103014.50;10218251;28;20124;-65
2022/01/14 15:46:13;;;;;;;18.33;3.10;;;;;;;6.39;100.00;103028.19;10183945;28;20050;-65
2022/01/14 15:51:10;;;;;;;22.95;2.88;;;;;;;6.35;100.00;103032.41;10192299;28;20093;-65
2022/01/14 15:56:06;;;;;;;22.95;3.17;;;;;;;6.24;100.00;103052.22;10179224;28;20580;-65
2022/01/14 16:01:03;;;;;;;26.95;3.38;;;;;;;6.20;100.00;103030.16;10195549;28;20421;-65
2022/01/14 16:05:59;;;;;;;29.15;3.30;;;;;;;6.03;100.00;103024.50;10201717;28;20041;-65
2022/01/14 16:10:56;;;;;;;22.83;2.92;;;;;;;6.02;100.00;103041.88;10173636;28;20069;-65
2022/01/14 16:15:53;;;;;;;18.40;3.70;;;;;;;5.94;100.00;103042.22;10203568;28;20084;-65
2022/01/14 16:20:49;;;;;;;21.75;3.15;;;;;;;5.95;100.00;103062.88;10232603;28;20092;-64
2022/01/14 16:25:47;;;;;;;21.25;4.03;;;;;;;5.89;100.00;103066.47;10197519;28;20049;-65
2022/01/14 16:30:43;;;;;;;33.15;5.50;;;;;;;5.90;100.00;103079.00;10203772;28;20107;-65
2022/01/14 16:35:41;;;;;;;27.15;4.57;;;;;;;5.87;100.00;103082.16;10192346;28;20222;-65
2022/01/14 16:40:40;;;;;;;26.13;3.33;;;;;;;5.79;100.00;103082.47;10192026;28;20085;-65
2022/01/14 16:45:37;;;;;;;27.83;6.53;;;;;;;5.74;100.00;103075.00;10177389;28;20080;-64
2022/01/14 16:50:33;;;;;;;20.65;3.72;;;;;;;5.66;100.00;103061.72;10184525;28;20121;-65
2022/01/14 16:55:30;;;;;;;28.08;3.65;;;;;;;5.59;100.00;103088.97;10184768;28;20046;-64
2022/01/14 17:00:26;;;;;;;29.45;5.30;;;;;;;5.53;100.00;103099.91;10185857;28;20049;-64
2022/01/14 17:05:23;;;;;;;27.85;4.63;;;;;;;5.46;100.00;103089.13;10185024;28;20049;-64
2022/01/14 17:10:19;;;;;;;27.13;4.13;;;;;;;5.48;100.00;103081.59;10189659;28;20486;-64
2022/01/14 17:15:16;;;;;;;26.05;5.72;;;;;;;5.43;100.00;103094.97;10188348;28;20100;-64
2022/01/14 17:20:12;;;;;;;26.70;4.68;;;;;;;5.36;100.00;103088.78;10236010;28;20057;-65
2022/01/14 17:25:11;;;;;;;20.67;3.92;;;;;;;5.34;100.00;103093.59;10189715;28;20041;-65
2022/01/14 17:30:09;;;;;;;26.52;3.80;;;;;;;5.26;100.00;103105.59;10184528;28;20074;-66
2022/01/14 17:35:06;;;;;;;29.88;4.30;;;;;;;5.27;100.00;103102.66;10175809;28;20601;-66
2022/01/14 17:40:04;;;;;;;29.98;6.70;;;;;;;5.21;100.00;103100.81;10183824;28;20513;-66
2022/01/14 17:45:01;;;;;;;33.20;6.20;;;;;;;5.15;100.00;103115.31;10178904;28;20484;-66
2022/01/14 17:49:58;;;;;;;29.83;6.75;;;;;;;5.05;100.00;103120.38;10180521;28;20060;-66
2022/01/14 17:54:54;;;;;;;46.05;10.20;;;;;;;5.03;100.00;103111.63;10185611;28;20054;-66
2022/01/14 17:59:59;;;;;;;34.30;4.32;;;;;;;5.08;100.00;103117.22;10173431;28;20050;-65
2022/01/14 18:04:56;;;;;;;30.50;4.32;;;;;;;4.98;100.00;103119.59;10180986;28;20565;-65
2022/01/14 18:09:52;;;;;;;26.80;4.85;;;;;;;4.99;100.00;103130.25;10178495;28;20595;-66
2022/01/14 18:14:50;;;;;;;29.48;4.65;;;;;;;4.99;100.00;103126.69;10177084;28;20816;-66
2022/01/14 18:19:46;;;;;;;26.20;3.88;;;;;;;4.96;100.00;103159.66;10172682;28;20054;-66
2022/01/14 18:24:44;;;;;;;31.25;4.45;;;;;;;4.77;100.00;103151.44;10164439;28;20581;-66
2022/01/14 18:29:40;;;;;;;36.53;7.00;;;;;;;4.82;100.00;103148.91;10191012;28;20101;-66
2022/01/14 18:34:37;;;;;;;24.85;4.32;;;;;;;4.72;100.00;103143.16;10171907;28;20081;-65
2022/01/14 18:39:34;;;;;;;34.10;4.80;;;;;;;4.66;100.00;103160.28;10165493;28;20058;-65
2022/01/14 18:44:34;;;;;;;33.22;5.45;;;;;;;4.59;100.00;103164.91;10164236;28;20041;-70
2022/01/14 18:49:30;;;;;;;29.02;4.80;;;;;;;4.63;100.00;103176.97;10166982;28;20504;-70
2022/01/14 18:54:30;;;;;;;33.38;5.47;;;;;;;4.65;100.00;103158.63;10166863;28;20115;-70
2022/01/14 18:59:27;;;;;;;38.50;6.63;;;;;;;4.57;100.00;103167.84;10195910;28;20053;-71
2022/01/14 19:04:23;;;;;;;37.67;7.53;;;;;;;4.49;100.00;103176.22;10208365;28;20107;-71
2022/01/14 19:09:20;;;;;;;30.77;5.05;;;;;;;4.30;100.00;103164.44;10203176;28;20042;-71
2022/01/14 19:14:16;;;;;;;31.25;5.85;;;;;;;4.36;100.00;103177.13;10179520;28;20100;-70
2022/01/14 19:19:18;;;;;;;34.97;6.65;;;;;;;4.41;100.00;103174.59;10196877;28;20053;-70
2022/01/14 19:24:17;;;;;;;33.25;6.65;;;;;;;4.25;100.00;103166.97;10165203;28;20046;-70
2022/01/14 19:29:13;;;;;;;36.97;6.35;;;;;;;4.26;100.00;103165.91;10207856;28;20057;-71
2022/01/14 19:34:10;;;;;;;30.48;5.68;;;;;;;4.22;100.00;103180.94;10189642;28;20092;-70
2022/01/14 19:39:07;;;;;;;57.95;7.07;;;;;;;4.20;100.00;103178.47;10215252;28;20540;-71
2022/01/14 19:44:04;;;;;;;38.70;6.80;;;;;;;4.18;100.00;103177.00;10180820;28;20078;-70
2022/01/14 19:49:00;;;;;;;48.78;14.52;;;;;;;4.18;100.00;103163.47;10198722;28;20046;-71
2022/01/14 19:53:57;;;;;;;39.92;6.97;;;;;;;4.12;100.00;103161.59;10219053;28;20088;-70
2022/01/14 19:58:59;;;;;;;44.42;9.30;;;;;;;4.16;100.00;103181.81;10212119;28;20084;-70
2022/01/14 20:03:55;;;;;;;46.75;10.00;;;;;;;4.12;100.00;103185.97;10182009;28;20073;-71
2022/01/14 20:08:52;;;;;;;34.67;6.18;;;;;;;4.02;100.00;103181.03;10208904;28;20505;-71
2022/01/14 20:13:48;;;;;;;35.05;5.00;;;;;;;3.96;100.00;103166.44;10216474;28;20045;-71
2022/01/14 20:18:45;;;;;;;27.30;6.40;;;;;;;4.06;100.00;103162.47;10227324;28;20054;-71
2022/01/14 20:23:42;;;;;;;28.42;6.25;;;;;;;3.95;100.00;103178.34;10195163;28;20501;-71
2022/01/14 20:28:39;;;;;;;40.50;8.18;;;;;;;3.95;100.00;103170.22;10215377;28;20076;-71
2022/01/14 20:33:36;;;;;;;43.28;5.68;;;;;;;3.91;100.00;103166.25;10192764;28;20096;-71
2022/01/14 20:38:34;;;;;;;39.55;8.43;;;;;;;3.91;100.00;103158.13;10226447;28;20050;-70
2022/01/14 20:43:37;;;;;;;32.78;6.28;;;;;;;3.81;100.00;103160.47;10188342;28;20046;-71
2022/01/14 20:48:34;;;;;;;34.35;6.50;;;;;;;3.87;100.00;103162.31;10212665;28;20049;-70
2022/01/14 20:53:33;;;;;;;37.92;5.55;;;;;;;3.78;100.00;103164.44;10180370;28;20762;-71
2022/01/14 20:58:30;;;;;;;36.95;7.40;;;;;;;3.71;100.00;103157.34;10203003;28;20127;-70
2022/01/14 21:03:27;;;;;;;44.70;6.00;;;;;;;3.76;100.00;103157.53;10198867;28;20045;-70
2022/01/14 21:08:42;;;;;;;30.40;6.65;;;;;;;3.64;100.00;103138.44;10217415;28;20046;-71
2022/01/14 21:13:39;;;;;;;40.10;5.53;;;;;;;3.64;100.00;103134.91;10188613;28;20042;-70
2022/01/14 21:18:36;;;;;;;36.42;6.70;;;;;;;3.58;100.00;103152.81;10218364;28;20084;-70
2022/01/14 21:23:33;;;;;;;33.53;6.07;;;;;;;3.59;100.00;103149.88;10211217;28;20107;-70
2022/01/14 21:28:29;;;;;;;44.45;6.72;;;;;;;3.57;100.00;103154.69;10201973;28;20107;-71
2022/01/14 21:33:26;;;;;;;32.50;6.57;;;;;;;3.52;100.00;103143.66;10207979;28;20510;-71
2022/01/14 21:38:22;;;;;;;32.28;5.38;;;;;;;3.55;100.00;103137.84;10204358;28;20108;-69
2022/01/14 21:43:21;;;;;;;30.58;5.15;;;;;;;3.54;100.00;103146.16;10170058;28;20097;-69
2022/01/14 21:48:18;;;;;;;40.35;6.53;;;;;;;3.50;100.00;103143.03;10161194;28;20066;-68
2022/01/14 21:53:14;;;;;;;40.05;5.97;;;;;;;3.53;100.00;103144.50;10182274;28;20490;-69
2022/01/14 21:58:11;;;;;;;41.05;5.80;;;;;;;3.42;100.00;103132.44;10172456;28;20084;-69
2022/01/14 22:03:07;;;;;;;37.05;6.85;;;;;;;3.46;100.00;103133.69;10206853;28;20096;-70
2022/01/14 22:08:05;;;;;;;38.30;7.63;;;;;;;3.43;100.00;103133.28;10177071;28;20045;-70
2022/01/14 22:13:05;;;;;;;34.70;6.07;;;;;;;3.29;100.00;103133.28;10169364;28;20152;-70
2022/01/14 22:18:06;;;;;;;27.70;5.15;;;;;;;3.23;100.00;103133.31;10172596;28;20070;-69
2022/01/14 22:23:07;;;;;;;40.35;4.80;;;;;;;3.22;100.00;103137.03;10177089;28;20046;-69
2022/01/14 22:28:04;;;;;;;32.28;6.10;;;;;;;3.21;100.00;103135.41;10169583;28;20073;-70
2022/01/14 22:33:01;;;;;;;38.30;6.43;;;;;;;3.32;100.00;103142.88;10174925;28;20077;-70
2022/01/14 22:38:01;;;;;;;39.50;5.10;;;;;;;3.30;100.00;103144.97;10177429;28;20038;-69
2022/01/14 22:42:58;;;;;;;33.30;4.95;;;;;;;3.30;100.00;103144.97;10180567;28;20129;-70
2022/01/14 22:47:54;;;;;;;33.83;6.75;;;;;;;3.31;100.00;103146.59;10171158;28;20043;-70
2022/01/14 22:52:51;;;;;;;39.10;5.03;;;;;;;3.27;100.00;103142.66;10175583;28;20096;-70
2022/01/14 22:57:48;;;;;;;34.88;6.00;;;;;;;3.28;100.00;103149.75;10167966;28;20518;-70
2022/01/14 23:02:45;;;;;;;38.38;6.47;;;;;;;3.25;100.00;103142.03;10176116;28;20684;-70
2022/01/14 23:07:43;;;;;;;46.05;5.88;;;;;;;3.21;100.00;103141.63;10175338;28;20043;-70